CheckWX is a tool to help pilots better visualize weather data.  It is not intended as a substitute for an official pre-flight weather briefing.

02:42:53 UTC

LPLA TAF
Lajes Field Airport
Lajes, Portugal
TAF LPLA 030506Z 0306/0406 VRB05KT 9999 FEW020 SCT030

Jul-3@
06:00 UTC

Jul-3 @ 06:00 UTC

Jul-4@
06:00 UTC

Jul-4 @ 06:00 UTC

TAF LPLA 030506Z 0306/0406 VRB05KT 9999 FEW020 SCT030
Wind
  • Variable at 5 KTS
Cloud Levels
  • Few at 2,000' AGL
  • Scattered at 3,000' AGL